Time,TemperatureF,DewpointF,PressureIn,WindDirection,WindDirectionDegrees,WindSpeedMPH,WindSpeedGustMPH,Humidity,HourlyPrecipIn,Conditions,Clouds,dailyrainin,SoftwareType,DateUTC
2013-03-15 00:02:00,49.0,38.0,29.92,SW,233,11.0,16.0,66,0.00,,,0.00,,2013-03-15 07:02:00,
2013-03-15 00:12:00,49.0,38.0,29.92,SW,233,11.0,16.0,66,0.00,,,0.00,,2013-03-15 07:12:00,
2013-03-15 00:21:00,49.0,38.0,29.93,SW,220,10.0,13.0,66,0.00,,,0.00,,2013-03-15 07:21:00,
2013-03-15 00:32:00,48.0,38.0,29.93,SW,229,13.0,15.0,67,0.00,,,0.00,,2013-03-15 07:32:00,
2013-03-15 00:42:00,48.0,38.0,29.93,SW,229,13.0,15.0,67,0.00,,,0.00,,2013-03-15 07:42:00,
2013-03-15 00:52:00,48.0,38.0,29.93,SW,224,14.0,19.0,68,0.00,,,0.00,,2013-03-15 07:52:00,
2013-03-15 01:02:00,48.0,38.0,29.93,SW,224,14.0,19.0,68,0.00,,,0.00,,2013-03-15 08:02:00,
2013-03-15 01:12:00,48.0,38.0,29.93,SW,224,14.0,19.0,68,0.00,,,0.00,,2013-03-15 08:12:00,
2013-03-15 01:22:00,46.0,38.0,29.93,SW,222,13.0,18.0,73,0.00,,,0.00,,2013-03-15 08:22:00,
2013-03-15 01:32:00,46.0,38.0,29.94,SW,225,13.0,19.0,73,0.00,,,0.00,,2013-03-15 08:32:00,
2013-03-15 01:42:00,46.0,38.0,29.94,SW,225,13.0,19.0,73,0.00,,,0.00,,2013-03-15 08:42:00,
2013-03-15 01:52:00,46.0,37.0,29.95,WSW,257,8.0,14.0,71,0.00,,,0.00,,2013-03-15 08:52:00,
2013-03-15 02:02:00,46.0,37.0,29.96,SSW,204,10.0,15.0,71,0.00,,,0.00,,2013-03-15 09:02:00,
2013-03-15 02:11:00,46.0,37.0,29.96,SSW,204,10.0,15.0,71,0.00,,,0.00,,2013-03-15 09:11:00,
2013-03-15 02:21:00,45.0,37.0,29.97,SW,215,10.0,19.0,73,0.00,,,0.00,,2013-03-15 09:21:00,
2013-03-15 02:33:00,44.0,36.0,29.98,SW,231,9.0,14.0,74,0.00,,,0.00,,2013-03-15 09:33:00,
2013-03-15 02:42:00,44.0,36.0,29.98,SW,231,9.0,14.0,74,0.00,,,0.00,,2013-03-15 09:42:00,
2013-03-15 02:52:00,43.0,36.0,29.98,SW,219,6.0,11.0,77,0.00,,,0.00,,2013-03-15 09:52:00,
2013-03-15 03:02:00,42.0,36.0,29.98,SSW,210,4.0,7.0,78,0.00,,,0.00,,2013-03-15 10:02:00,
2013-03-15 03:12:00,42.0,36.0,29.98,SSW,210,4.0,7.0,78,0.00,,,0.00,,2013-03-15 10:12:00,
2013-03-15 03:23:00,41.0,36.0,29.98,SE,132,4.0,7.0,81,0.00,,,0.00,,2013-03-15 10:23:00,
2013-03-15 03:32:00,42.0,36.0,29.98,SSW,212,3.0,6.0,80,0.00,,,0.00,,2013-03-15 10:32:00,
2013-03-15 03:42:00,42.0,36.0,29.98,SSW,212,3.0,6.0,80,0.00,,,0.00,,2013-03-15 10:42:00,
2013-03-15 03:52:00,41.0,36.0,29.99,SSW,192,4.0,9.0,83,0.00,,,0.00,,2013-03-15 10:52:00,
2013-03-15 04:02:00,41.0,36.0,29.99,WSW,238,5.0,10.0,83,0.00,,,0.00,,2013-03-15 11:02:00,
2013-03-15 04:12:00,41.0,36.0,29.99,WSW,238,5.0,10.0,83,0.00,,,0.00,,2013-03-15 11:12:00,
2013-03-15 04:22:00,41.0,36.0,29.98,SSW,208,7.0,12.0,82,0.00,,,0.00,,2013-03-15 11:22:00,
2013-03-15 04:32:00,41.0,36.0,29.99,SW,227,9.0,13.0,82,0.00,,,0.00,,2013-03-15 11:32:00,
2013-03-15 04:41:00,41.0,36.0,29.99,SW,227,9.0,13.0,82,0.00,,,0.00,,2013-03-15 11:41:00,
2013-03-15 04:52:00,41.0,36.0,30.01,SW,217,3.0,12.0,83,0.00,,,0.00,,2013-03-15 11:52:00,
2013-03-15 05:02:00,40.0,36.0,30.01,SW,231,4.0,7.0,84,0.00,,,0.00,,2013-03-15 12:02:00,
2013-03-15 05:12:00,40.0,36.0,30.01,SW,231,4.0,7.0,84,0.00,,,0.00,,2013-03-15 12:12:00,
2013-03-15 05:22:00,40.0,36.0,30.01,NNW,340,0.0,3.0,85,0.00,,,0.00,,2013-03-15 12:22:00,
2013-03-15 05:32:00,40.0,36.0,30.01,NNW,340,0.0,3.0,85,0.00,,,0.00,,2013-03-15 12:32:00,
2013-03-15 05:42:00,40.0,36.0,30.01,NNW,340,0.0,3.0,85,0.00,,,0.00,,2013-03-15 12:42:00,
2013-03-15 05:52:00,40.0,36.0,30.03,SW,217,4.0,6.0,85,0.00,,,0.00,,2013-03-15 12:52:00,
2013-03-15 06:02:00,40.0,36.0,30.03,SW,224,3.0,4.0,86,0.00,,,0.00,,2013-03-15 13:02:00,
2013-03-15 06:12:00,40.0,36.0,30.03,SW,224,3.0,4.0,86,0.00,,,0.00,,2013-03-15 13:12:00,
2013-03-15 06:22:00,38.0,34.0,30.04,WSW,245,1.0,3.0,87,0.00,,,0.00,,2013-03-15 13:22:00,
2013-03-15 06:32:00,38.0,35.0,30.04,WSW,244,2.0,3.0,89,0.00,,,0.00,,2013-03-15 13:32:00,
2013-03-15 06:41:00,38.0,35.0,30.04,WSW,244,2.0,3.0,89,0.00,,,0.00,,2013-03-15 13:41:00,
2013-03-15 06:52:00,38.0,35.0,30.04,WSW,248,3.0,4.0,89,0.00,,,0.00,,2013-03-15 13:52:00,
2013-03-15 07:02:00,39.0,36.0,30.04,SW,233,4.0,6.0,89,0.00,,,0.00,,2013-03-15 14:02:00,
2013-03-15 07:11:00,39.0,36.0,30.04,SW,233,4.0,6.0,89,0.00,,,0.00,,2013-03-15 14:11:00,
2013-03-15 07:22:00,38.0,35.0,30.04,WSW,257,2.0,4.0,88,0.00,,,0.00,,2013-03-15 14:22:00,
2013-03-15 07:32:00,37.0,35.0,30.05,WSW,241,2.0,4.0,92,0.00,,,0.00,,2013-03-15 14:32:00,
2013-03-15 07:42:00,37.0,35.0,30.05,WSW,241,2.0,4.0,92,0.00,,,0.00,,2013-03-15 14:42:00,
2013-03-15 07:52:00,38.0,36.0,30.05,West,275,0.0,3.0,92,0.00,,,0.00,,2013-03-15 14:52:00,
2013-03-15 08:02:00,38.0,35.0,30.06,NW,312,0.0,3.0,90,0.00,,,0.00,,2013-03-15 15:02:00,
2013-03-15 08:12:00,38.0,35.0,30.06,NW,312,0.0,3.0,90,0.00,,,0.00,,2013-03-15 15:12:00,
2013-03-15 08:22:00,37.0,35.0,30.07,West,264,2.0,2.0,93,0.00,,,0.00,,2013-03-15 15:22:00,
2013-03-15 08:32:00,39.0,37.0,30.07,SW,220,3.0,4.0,91,0.00,,,0.00,,2013-03-15 15:32:00,
2013-03-15 08:42:00,39.0,37.0,30.07,SW,220,3.0,4.0,91,0.00,,,0.00,,2013-03-15 15:42:00,
2013-03-15 08:52:00,40.0,38.0,30.07,SSW,210,7.0,8.0,91,0.00,,,0.00,,2013-03-15 15:52:00,
2013-03-15 09:02:00,42.0,39.0,30.08,SSW,209,5.0,9.0,90,0.00,,,0.00,,2013-03-15 16:02:00,
2013-03-15 09:12:00,42.0,39.0,30.08,SSW,207,7.0,12.0,89,0.00,,,0.00,,2013-03-15 16:12:00,
2013-03-15 09:22:00,42.0,39.0,30.08,SSW,207,7.0,12.0,89,0.00,,,0.00,,2013-03-15 16:22:00,
2013-03-15 09:32:00,42.0,39.0,30.08,SSW,204,8.0,11.0,90,0.00,,,0.00,,2013-03-15 16:32:00,
2013-03-15 09:42:00,42.0,39.0,30.08,SSW,204,8.0,11.0,90,0.00,,,0.00,,2013-03-15 16:42:00,
2013-03-15 09:52:00,43.0,40.0,30.09,SSW,201,5.0,10.0,89,0.00,,,0.00,,2013-03-15 16:52:00,
2013-03-15 10:02:00,43.0,40.0,30.09,SSW,197,4.0,7.0,88,0.00,,,0.00,,2013-03-15 17:02:00,
2013-03-15 10:12:00,43.0,40.0,30.09,SSW,197,4.0,7.0,88,0.00,,,0.00,,2013-03-15 17:12:00,
2013-03-15 10:22:00,44.0,41.0,30.09,SE,136,2.0,4.0,88,0.00,,,0.00,,2013-03-15 17:22:00,
2013-03-15 10:32:00,44.0,41.0,30.09,SW,218,2.0,7.0,89,0.00,,,0.00,,2013-03-15 17:32:00,
2013-03-15 10:42:00,44.0,41.0,30.09,SW,218,2.0,7.0,89,0.00,,,0.00,,2013-03-15 17:42:00,
2013-03-15 10:52:00,45.0,41.0,30.09,SW,217,2.0,6.0,87,0.00,,,0.00,,2013-03-15 17:52:00,
2013-03-15 11:02:00,46.0,42.0,30.09,South,175,1.0,8.0,87,0.00,,,0.00,,2013-03-15 18:02:00,
2013-03-15 11:11:00,46.0,42.0,30.09,South,175,1.0,8.0,87,0.00,,,0.00,,2013-03-15 18:11:00,
2013-03-15 11:21:00,46.0,42.0,30.09,South,175,1.0,8.0,87,0.00,,,0.00,,2013-03-15 18:21:00,
2013-03-15 11:32:00,48.0,43.0,30.09,SW,219,6.0,9.0,84,0.00,,,0.00,,2013-03-15 18:32:00,
2013-03-15 11:42:00,48.0,43.0,30.09,SW,219,6.0,9.0,84,0.00,,,0.00,,2013-03-15 18:42:00,
2013-03-15 11:52:00,49.0,44.0,30.09,SW,229,7.0,11.0,84,0.00,,,0.00,,2013-03-15 18:52:00,
2013-03-15 12:02:00,49.0,44.0,30.09,SW,229,7.0,11.0,84,0.00,,,0.00,,2013-03-15 19:02:00,
2013-03-15 12:12:00,49.0,44.0,30.09,SW,229,7.0,11.0,84,0.00,,,0.00,,2013-03-15 19:12:00,
2013-03-15 12:22:00,49.0,43.0,30.09,SSW,207,4.0,9.0,80,0.00,,,0.00,,2013-03-15 19:22:00,
2013-03-15 12:31:00,49.0,43.0,30.09,SSW,207,4.0,9.0,80,0.00,,,0.00,,2013-03-15 19:31:00,
2013-03-15 12:42:00,49.0,43.0,30.09,SSW,207,4.0,9.0,80,0.00,,,0.00,,2013-03-15 19:42:00,
2013-03-15 12:52:00,52.0,45.0,30.07,SSW,203,5.0,8.0,77,0.00,,,0.00,,2013-03-15 19:52:00,
2013-03-15 13:02:00,52.0,45.0,30.07,SSW,205,5.0,12.0,76,0.00,,,0.00,,2013-03-15 20:02:00,
2013-03-15 13:12:00,52.0,45.0,30.07,SSW,205,5.0,12.0,76,0.00,,,0.00,,2013-03-15 20:12:00,
2013-03-15 13:22:00,52.0,44.0,30.07,WSW,253,6.0,11.0,73,0.00,,,0.00,,2013-03-15 20:22:00,
2013-03-15 13:31:00,53.0,45.0,30.06,SW,215,6.0,10.0,73,0.00,,,0.00,,2013-03-15 20:31:00,
2013-03-15 13:42:00,53.0,45.0,30.06,SW,215,6.0,10.0,73,0.00,,,0.00,,2013-03-15 20:42:00,
2013-03-15 13:52:00,53.0,44.0,30.05,SW,232,2.0,10.0,71,0.00,,,0.00,,2013-03-15 20:52:00,
2013-03-15 14:02:00,53.0,44.0,30.05,SSW,197,3.0,9.0,72,0.00,,,0.00,,2013-03-15 21:02:00,
2013-03-15 14:11:00,53.0,44.0,30.05,SSW,197,3.0,9.0,72,0.00,,,0.00,,2013-03-15 21:11:00,
2013-03-15 14:21:00,54.0,44.0,30.03,West,263,1.0,7.0,69,0.00,,,0.00,,2013-03-15 21:21:00,
2013-03-15 14:32:00,55.0,45.0,30.03,SSW,205,6.0,10.0,69,0.00,,,0.00,,2013-03-15 21:32:00,
2013-03-15 14:42:00,55.0,45.0,30.03,SSW,205,6.0,10.0,69,0.00,,,0.00,,2013-03-15 21:42:00,
2013-03-15 14:52:00,55.0,43.0,30.02,SSW,200,5.0,10.0,65,0.00,,,0.00,,2013-03-15 21:52:00,
2013-03-15 15:02:00,56.0,45.0,30.01,SSW,200,5.0,10.0,66,0.00,,,0.00,,2013-03-15 22:02:00,
2013-03-15 15:12:00,56.0,45.0,30.01,SSW,200,5.0,10.0,66,0.00,,,0.00,,2013-03-15 22:12:00,
2013-03-15 15:22:00,56.0,43.0,30.01,SSW,197,6.0,12.0,62,0.00,,,0.00,,2013-03-15 22:22:00,
2013-03-15 15:32:00,57.0,43.0,30.01,SW,222,5.0,14.0,59,0.00,,,0.00,,2013-03-15 22:32:00,
2013-03-15 15:42:00,57.0,43.0,30.01,SW,222,5.0,14.0,59,0.00,,,0.00,,2013-03-15 22:42:00,
2013-03-15 15:52:00,56.0,41.0,30.00,West,270,0.0,7.0,56,0.00,,,0.00,,2013-03-15 22:52:00,
2013-03-15 16:02:00,55.0,39.0,30.00,WSW,254,3.0,8.0,55,0.00,,,0.00,,2013-03-15 23:02:00,
2013-03-15 16:12:00,55.0,39.0,30.00,WSW,254,3.0,8.0,55,0.00,,,0.00,,2013-03-15 23:12:00,
2013-03-15 16:22:00,56.0,41.0,30.00,SSW,200,5.0,9.0,57,0.00,,,0.00,,2013-03-15 23:22:00,
2013-03-15 16:32:00,56.0,41.0,29.99,SW,227,4.0,9.0,58,0.00,,,0.00,,2013-03-15 23:32:00,
2013-03-15 16:42:00,56.0,41.0,29.99,SW,227,4.0,9.0,58,0.00,,,0.00,,2013-03-15 23:42:00,
2013-03-15 16:53:00,55.0,40.0,29.99,WSW,250,4.0,9.0,56,0.00,,,0.00,,2013-03-15 23:53:00,
2013-03-15 17:02:00,55.0,40.0,29.99,SW,232,3.0,11.0,57,0.00,,,0.00,,2013-03-16 00:02:00,
2013-03-15 17:12:00,55.0,40.0,29.99,SW,232,3.0,11.0,57,0.00,,,0.00,,2013-03-16 00:12:00,
2013-03-15 17:22:00,54.0,39.0,29.99,SSW,212,5.0,10.0,56,0.00,,,0.00,,2013-03-16 00:22:00,
2013-03-15 17:32:00,54.0,40.0,29.99,SW,224,4.0,9.0,58,0.00,,,0.00,,2013-03-16 00:32:00,
2013-03-15 17:42:00,54.0,40.0,29.99,SW,224,4.0,9.0,58,0.00,,,0.00,,2013-03-16 00:42:00,
2013-03-15 17:52:00,54.0,40.0,29.99,SW,217,9.0,12.0,60,0.00,,,0.00,,2013-03-16 00:52:00,
2013-03-15 18:01:00,53.0,40.0,29.99,SW,222,7.0,12.0,62,0.00,,,0.00,,2013-03-16 01:01:00,
2013-03-15 18:12:00,53.0,40.0,29.99,SW,222,7.0,12.0,62,0.00,,,0.00,,2013-03-16 01:12:00,
2013-03-15 18:21:00,52.0,40.0,29.99,SW,217,4.0,7.0,63,0.00,,,0.00,,2013-03-16 01:21:00,
2013-03-15 18:32:00,52.0,40.0,29.98,SW,236,4.0,6.0,64,0.00,,,0.00,,2013-03-16 01:32:00,
2013-03-15 18:41:00,52.0,40.0,29.98,SW,236,4.0,6.0,64,0.00,,,0.00,,2013-03-16 01:41:00,
2013-03-15 18:52:00,51.0,40.0,29.98,SW,229,4.0,7.0,66,0.00,,,0.00,,2013-03-16 01:52:00,
2013-03-15 19:02:00,51.0,40.0,29.98,SW,229,4.0,6.0,65,0.00,,,0.00,,2013-03-16 02:02:00,
2013-03-15 19:11:00,51.0,40.0,29.98,SW,229,4.0,6.0,65,0.00,,,0.00,,2013-03-16 02:11:00,
2013-03-15 19:22:00,50.0,39.0,29.97,WSW,237,5.0,6.0,66,0.00,,,0.00,,2013-03-16 02:22:00,
2013-03-15 19:32:00,49.0,39.0,29.98,WSW,247,5.0,8.0,67,0.00,,,0.00,,2013-03-16 02:32:00,
2013-03-15 19:42:00,49.0,39.0,29.98,WSW,247,5.0,8.0,67,0.00,,,0.00,,2013-03-16 02:42:00,
2013-03-15 19:52:00,49.0,39.0,29.98,SW,235,5.0,6.0,68,0.00,,,0.00,,2013-03-16 02:52:00,
2013-03-15 20:02:00,48.0,38.0,29.98,WSW,250,4.0,7.0,69,0.00,,,0.00,,2013-03-16 03:02:00,
2013-03-15 20:11:00,48.0,38.0,29.98,WSW,250,4.0,7.0,69,0.00,,,0.00,,2013-03-16 03:11:00,
2013-03-15 20:21:00,47.0,38.0,29.98,SW,217,6.0,8.0,70,0.00,,,0.00,,2013-03-16 03:21:00,
2013-03-15 20:32:00,47.0,38.0,29.97,SW,222,3.0,8.0,71,0.00,,,0.00,,2013-03-16 03:32:00,
2013-03-15 20:42:00,47.0,38.0,29.97,SW,222,3.0,8.0,71,0.00,,,0.00,,2013-03-16 03:42:00,
2013-03-15 20:53:00,47.0,36.0,29.98,SW,214,2.0,6.0,66,0.00,,,0.00,,2013-03-16 03:53:00,
2013-03-15 21:02:00,46.0,36.0,29.98,SW,232,1.0,4.0,69,0.00,,,0.00,,2013-03-16 04:02:00,
2013-03-15 21:12:00,46.0,36.0,29.98,SW,232,1.0,4.0,69,0.00,,,0.00,,2013-03-16 04:12:00,
2013-03-15 21:22:00,45.0,37.0,29.98,WSW,240,0.0,2.0,72,0.00,,,0.00,,2013-03-16 04:22:00,
2013-03-15 21:32:00,45.0,37.0,29.98,West,263,0.0,2.0,72,0.00,,,0.00,,2013-03-16 04:32:00,
2013-03-15 21:42:00,45.0,37.0,29.98,West,263,0.0,2.0,72,0.00,,,0.00,,2013-03-16 04:42:00,
2013-03-15 21:53:00,44.0,36.0,29.98,West,279,0.0,1.0,74,0.00,,,0.00,,2013-03-16 04:53:00,
2013-03-15 22:02:00,43.0,36.0,29.98,West,262,0.0,1.0,76,0.00,,,0.00,,2013-03-16 05:02:00,
2013-03-15 22:12:00,43.0,36.0,29.98,West,262,0.0,1.0,76,0.00,,,0.00,,2013-03-16 05:12:00,
2013-03-15 22:21:00,43.0,36.0,29.98,NNW,334,0.0,2.0,77,0.00,,,0.00,,2013-03-16 05:21:00,
2013-03-15 22:32:00,43.0,36.0,29.99,NNW,334,0.0,1.0,77,0.00,,,0.00,,2013-03-16 05:32:00,
2013-03-15 22:42:00,43.0,36.0,29.99,NNW,334,0.0,1.0,77,0.00,,,0.00,,2013-03-16 05:42:00,
2013-03-15 22:52:00,43.0,36.0,29.98,West,271,0.0,2.0,76,0.00,,,0.00,,2013-03-16 05:52:00,
2013-03-15 23:02:00,44.0,36.0,29.98,West,278,2.0,4.0,73,0.00,,,0.00,,2013-03-16 06:02:00,
2013-03-15 23:12:00,44.0,36.0,29.98,West,278,2.0,4.0,73,0.00,,,0.00,,2013-03-16 06:12:00,
2013-03-15 23:21:00,44.0,36.0,29.98,SW,232,3.0,5.0,73,0.00,,,0.00,,2013-03-16 06:21:00,
2013-03-15 23:32:00,44.0,36.0,29.98,SW,227,4.0,7.0,72,0.00,,,0.00,,2013-03-16 06:32:00,
2013-03-15 23:41:00,44.0,36.0,29.98,SW,227,4.0,7.0,72,0.00,,,0.00,,2013-03-16 06:41:00,
2013-03-15 23:52:00,44.0,36.0,29.98,SW,229,4.0,6.0,73,0.00,,,0.00,,2013-03-16 06:52:00,